createdAt,value
2023-03-22T00:00:23.402Z,10.20
2023-03-22T00:02:50.500Z,9.98
2023-03-22T00:05:17.611Z,9.98
2023-03-22T00:07:46.021Z,10.13
2023-03-22T00:10:13.048Z,9.15
2023-03-22T00:12:39.970Z,9.45
2023-03-22T00:15:08.277Z,10.20
2023-03-22T00:17:35.289Z,9.35
2023-03-22T00:20:02.369Z,10.60
2023-03-22T00:22:29.404Z,10.07
2023-03-22T00:24:57.785Z,10.05
2023-03-22T00:27:24.822Z,10.02
2023-03-22T00:29:52.358Z,9.52
2023-03-22T00:32:19.395Z,9.63
2023-03-22T00:34:46.487Z,9.57
2023-03-22T00:37:13.542Z,9.98
2023-03-22T00:39:40.500Z,9.48
2023-03-22T00:42:08.909Z,9.77
2023-03-22T00:44:35.897Z,8.63
2023-03-22T00:47:03.360Z,9.73
2023-03-22T00:49:30.358Z,9.32
2023-03-22T00:51:57.419Z,8.82
2023-03-22T00:54:24.465Z,9.30
2023-03-22T00:56:51.537Z,9.18
2023-03-22T00:59:20.054Z,8.15
2023-03-22T01:01:47.069Z,8.90
2023-03-22T01:04:14.088Z,9.40
2023-03-22T01:06:41.106Z,8.63
2023-03-22T01:09:08.050Z,8.25
2023-03-22T01:11:34.994Z,8.57
2023-03-22T01:14:02.014Z,8.05
2023-03-22T01:16:30.558Z,8.68
2023-03-22T01:18:57.495Z,8.45
2023-03-22T01:21:24.659Z,8.07
2023-03-22T01:23:51.724Z,8.60
2023-03-22T01:26:18.784Z,8.30
2023-03-22T01:28:45.892Z,8.38
2023-03-22T01:31:13.038Z,8.20
2023-03-22T01:33:41.514Z,7.18
2023-03-22T01:36:09.240Z,7.32
2023-03-22T01:38:36.263Z,7.15
2023-03-22T01:41:03.643Z,7.63
2023-03-22T01:43:30.925Z,7.53
2023-03-22T01:45:58.670Z,7.07
2023-03-22T01:48:28.066Z,6.43
2023-03-22T01:51:03.737Z,6.97
2023-03-22T01:53:34.260Z,7.25
2023-03-22T01:56:02.160Z,8.00
2023-03-22T01:58:29.572Z,7.75
2023-03-22T02:00:56.901Z,7.55
2023-03-22T02:03:34.324Z,8.07
2023-03-22T02:06:03.024Z,7.13
2023-03-22T02:08:32.264Z,6.95
2023-03-22T02:11:01.006Z,7.28
2023-03-22T02:13:38.398Z,7.30
2023-03-22T02:16:18.712Z,6.30
2023-03-22T02:19:06.421Z,6.53
2023-03-22T02:21:56.050Z,6.75
2023-03-22T02:25:03.059Z,7.60
2023-03-22T02:27:45.039Z,6.68
2023-03-22T02:30:35.020Z,7.22
2023-03-22T02:33:23.345Z,7.05
2023-03-22T02:36:04.052Z,7.10
2023-03-22T02:39:01.091Z,6.80
2023-03-22T02:41:38.486Z,6.18
2023-03-22T02:44:12.621Z,6.60
2023-03-22T02:46:45.097Z,6.20
2023-03-22T02:49:18.746Z,6.43
2023-03-22T02:51:50.235Z,6.38
2023-03-22T02:54:22.363Z,6.80
2023-03-22T02:56:52.277Z,5.65
2023-03-22T02:59:21.770Z,5.30
2023-03-22T03:01:51.768Z,6.63
2023-03-22T03:04:24.641Z,6.20
2023-03-22T03:06:54.204Z,5.65
2023-03-22T03:09:23.728Z,5.82
2023-03-22T03:11:52.233Z,5.72
2023-03-22T03:14:24.152Z,5.38
2023-03-22T03:17:07.223Z,5.75
2023-03-22T03:19:41.122Z,5.38
2023-03-22T03:22:24.457Z,4.00
2023-03-22T03:25:00.097Z,5.47
2023-03-22T03:27:34.730Z,5.93
2023-03-22T03:30:06.964Z,5.30
2023-03-22T03:32:37.967Z,5.38
2023-03-22T03:35:10.675Z,5.72
2023-03-22T03:37:43.884Z,5.18
2023-03-22T03:40:16.562Z,4.75
2023-03-22T03:42:47.922Z,5.43
2023-03-22T03:45:16.913Z,5.10
2023-03-22T03:47:46.468Z,5.45
2023-03-22T03:50:16.133Z,5.32
2023-03-22T03:52:43.425Z,5.35
2023-03-22T03:55:12.197Z,5.80
2023-03-22T03:57:39.265Z,5.80
2023-03-22T04:00:07.894Z,5.50
2023-03-22T04:02:35.066Z,5.68
2023-03-22T04:05:02.307Z,6.03
2023-03-22T04:07:29.440Z,6.65
2023-03-22T04:09:56.454Z,5.75
2023-03-22T04:12:24.875Z,6.28
2023-03-22T04:14:51.918Z,5.68
2023-03-22T04:17:18.950Z,7.50
2023-03-22T04:19:45.966Z,6.93
2023-03-22T04:22:13.144Z,6.85
2023-03-22T04:24:40.106Z,7.35
2023-03-22T04:27:07.230Z,6.50
2023-03-22T04:29:36.075Z,6.88
2023-03-22T04:32:03.283Z,7.30
2023-03-22T04:34:31.637Z,6.88
2023-03-22T04:36:58.757Z,7.40
2023-03-22T04:39:26.318Z,7.05
2023-03-22T04:41:53.366Z,7.60
2023-03-22T04:44:20.422Z,6.97
2023-03-22T04:46:48.850Z,7.85
2023-03-22T04:49:15.939Z,5.45
2023-03-22T04:51:43.055Z,6.45
2023-03-22T04:54:10.090Z,6.07
2023-03-22T04:56:37.473Z,4.85
2023-03-22T04:59:04.880Z,5.97
2023-03-22T05:01:31.921Z,5.13
2023-03-22T05:04:00.308Z,4.88
2023-03-22T05:06:27.307Z,5.50
2023-03-22T05:08:54.328Z,5.00
2023-03-22T05:11:21.281Z,5.65
2023-03-22T05:13:48.430Z,4.50
2023-03-22T05:16:15.491Z,3.90
2023-03-22T05:18:42.541Z,4.90
2023-03-22T05:21:14.184Z,4.38
2023-03-22T05:23:41.563Z,4.63
2023-03-22T05:26:08.866Z,3.92
2023-03-22T05:28:36.770Z,4.03
2023-03-22T05:31:04.205Z,3.88
2023-03-22T05:33:31.166Z,3.75
2023-03-22T05:35:58.182Z,4.10
2023-03-22T05:38:26.968Z,3.53
2023-03-22T05:40:54.260Z,3.28
2023-03-22T05:43:21.217Z,3.83
2023-03-22T05:45:48.219Z,3.13
2023-03-22T05:48:15.317Z,3.15
2023-03-22T05:50:42.317Z,3.00
2023-03-22T05:53:09.273Z,2.83
2023-03-22T05:55:37.721Z,3.58
2023-03-22T05:58:05.164Z,2.55
2023-03-22T06:00:32.286Z,2.80
2023-03-22T06:02:59.888Z,2.95
2023-03-22T06:05:26.920Z,3.13
2023-03-22T06:07:54.151Z,3.13
2023-03-22T06:10:21.173Z,2.78
2023-03-22T06:12:49.667Z,2.95
2023-03-22T06:15:16.729Z,3.67
2023-03-22T06:17:43.726Z,3.92
2023-03-22T06:20:13.312Z,3.75
2023-03-22T06:22:40.328Z,4.38
2023-03-22T06:25:10.769Z,4.90
2023-03-22T06:27:38.132Z,4.80
2023-03-22T06:30:08.277Z,4.47
2023-03-22T06:32:35.785Z,4.28
2023-03-22T06:35:02.805Z,4.43
2023-03-22T06:37:29.814Z,4.00
2023-03-22T06:39:56.838Z,4.35
2023-03-22T06:42:23.785Z,4.40
2023-03-22T06:44:50.710Z,4.40
2023-03-22T06:47:19.072Z,4.20
2023-03-22T06:49:46.408Z,3.58
2023-03-22T06:52:13.411Z,3.90
2023-03-22T06:54:40.356Z,4.18
2023-03-22T06:57:07.581Z,3.63
2023-03-22T06:59:34.527Z,3.40
2023-03-22T07:02:01.463Z,2.85
2023-03-22T07:04:29.956Z,3.28
2023-03-22T07:06:57.267Z,3.55
2023-03-22T07:09:24.570Z,3.58
2023-03-22T07:11:51.517Z,3.58
2023-03-22T07:14:18.773Z,3.63
2023-03-22T07:16:45.747Z,3.05
2023-03-22T07:19:12.803Z,2.85
2023-03-22T07:21:41.166Z,4.10
2023-03-22T07:24:10.237Z,3.85
2023-03-22T07:26:37.898Z,3.30
2023-03-22T07:29:05.034Z,4.05
2023-03-22T07:31:33.009Z,3.05
2023-03-22T07:34:00.126Z,3.42
2023-03-22T07:36:27.152Z,3.65
2023-03-22T07:38:55.582Z,3.38
2023-03-22T07:41:22.761Z,3.55
2023-03-22T07:43:55.456Z,3.30
2023-03-22T07:46:25.626Z,4.03
2023-03-22T07:48:52.616Z,3.50
2023-03-22T07:51:19.857Z,3.25
2023-03-22T07:53:46.836Z,3.45
2023-03-22T07:56:15.171Z,3.40
2023-03-22T07:58:42.162Z,3.10
2023-03-22T08:01:09.343Z,3.30
2023-03-22T08:03:36.542Z,3.50
2023-03-22T08:06:04.483Z,3.05
2023-03-22T08:08:31.466Z,2.70
2023-03-22T08:10:58.881Z,3.65
2023-03-22T08:13:27.394Z,3.10
2023-03-22T08:15:54.754Z,2.70
2023-03-22T08:18:21.700Z,3.40
2023-03-22T08:20:53.486Z,3.22
2023-03-22T08:23:28.836Z,3.70
2023-03-22T08:26:02.043Z,4.18
2023-03-22T08:28:30.515Z,3.50
2023-03-22T08:30:57.546Z,3.45
2023-03-22T08:33:24.485Z,3.92
2023-03-22T08:35:51.772Z,3.83
2023-03-22T08:38:18.891Z,4.40
2023-03-22T08:40:46.850Z,4.22
2023-03-22T08:43:13.984Z,4.05
2023-03-22T08:45:42.923Z,3.80
2023-03-22T08:48:10.152Z,4.10
2023-03-22T08:50:37.176Z,3.75
2023-03-22T08:53:04.121Z,3.97
2023-03-22T08:55:31.110Z,4.18
2023-03-22T08:57:58.074Z,3.30
2023-03-22T09:00:25.315Z,3.63
2023-03-22T09:02:53.640Z,4.20
2023-03-22T09:05:20.616Z,4.30
2023-03-22T09:07:51.581Z,4.05
2023-03-22T09:10:18.910Z,4.05
2023-03-22T09:12:45.914Z,4.32
2023-03-22T09:15:12.831Z,4.63
2023-03-22T09:17:39.751Z,4.35
2023-03-22T09:20:12.716Z,4.50
2023-03-22T09:22:40.406Z,4.22
2023-03-22T09:25:09.975Z,4.22
2023-03-22T09:27:38.287Z,4.82
2023-03-22T09:30:06.080Z,4.35
2023-03-22T09:32:33.383Z,4.50
2023-03-22T09:35:00.404Z,5.18
2023-03-22T09:37:28.713Z,4.47
2023-03-22T09:39:55.889Z,3.72
2023-03-22T09:42:31.320Z,3.53
2023-03-22T09:45:01.319Z,3.67
2023-03-22T09:47:44.187Z,3.47
2023-03-22T09:50:15.210Z,3.95
2023-03-22T09:52:44.110Z,4.80
2023-03-22T09:55:19.250Z,3.60
2023-03-22T09:57:51.940Z,3.97
2023-03-22T10:00:24.705Z,2.67
2023-03-22T10:03:01.205Z,4.05
2023-03-22T10:05:35.570Z,3.70
2023-03-22T10:08:35.060Z,3.83
2023-03-22T10:11:02.215Z,3.35
2023-03-22T10:13:36.647Z,3.45
2023-03-22T10:16:06.507Z,3.88
2023-03-22T10:18:36.813Z,3.75
2023-03-22T10:21:05.884Z,3.55
2023-03-22T10:23:42.305Z,3.92
2023-03-22T10:26:20.044Z,3.35
2023-03-22T10:28:55.171Z,2.60
2023-03-22T10:31:22.979Z,2.78
2023-03-22T10:33:56.057Z,2.53
2023-03-22T10:36:26.415Z,2.90
2023-03-22T10:38:59.852Z,3.35
2023-03-22T10:41:28.557Z,2.83
2023-03-22T10:43:58.390Z,3.75
2023-03-22T10:46:28.862Z,3.55
2023-03-22T10:48:59.622Z,3.78
2023-03-22T10:51:30.815Z,3.88
2023-03-22T10:54:00.047Z,3.50
2023-03-22T10:56:27.371Z,3.60
2023-03-22T10:58:55.981Z,3.58
2023-03-22T11:01:29.044Z,2.65
2023-03-22T11:03:59.003Z,4.07
2023-03-22T11:06:27.777Z,4.18
2023-03-22T11:09:00.080Z,3.55
2023-03-22T11:11:29.259Z,4.32
2023-03-22T11:14:01.542Z,4.57
2023-03-22T11:16:30.369Z,3.72
2023-03-22T11:19:00.870Z,4.05
2023-03-22T11:21:31.616Z,3.30
2023-03-22T11:24:05.477Z,3.30
2023-03-22T11:26:38.809Z,3.80
2023-03-22T11:29:16.230Z,3.72
2023-03-22T11:34:23.485Z,4.05
2023-03-22T11:36:50.739Z,4.15
2023-03-22T11:39:19.136Z,4.32
2023-03-22T11:41:46.272Z,4.28
2023-03-22T11:44:16.292Z,4.68
2023-03-22T11:46:51.543Z,4.68
2023-03-22T11:49:18.980Z,10.00
2023-03-22T11:51:46.298Z,6.20
2023-03-22T11:54:21.432Z,5.00
2023-03-22T11:56:49.821Z,5.10
2023-03-22T11:59:22.960Z,4.50
2023-03-22T12:01:54.756Z,6.07
2023-03-22T12:04:26.612Z,5.47
2023-03-22T12:06:57.087Z,5.57
2023-03-22T12:09:31.724Z,5.28
2023-03-22T12:12:02.214Z,6.10
2023-03-22T12:14:33.096Z,10.68
2023-03-22T12:17:06.007Z,6.25
2023-03-22T12:19:52.351Z,7.47
2023-03-22T12:22:22.859Z,8.35
2023-03-22T12:24:49.778Z,5.90
2023-03-22T12:27:21.962Z,6.15
2023-03-22T12:29:54.652Z,6.10
2023-03-22T12:32:26.958Z,8.07
2023-03-22T12:35:01.290Z,6.55
2023-03-22T12:37:39.380Z,7.07
2023-03-22T12:40:15.597Z,5.55
2023-03-22T12:42:55.507Z,6.25
2023-03-22T12:45:27.710Z,5.20
2023-03-22T12:48:00.734Z,6.65
2023-03-22T12:50:34.790Z,5.90
2023-03-22T12:53:02.306Z,7.53
2023-03-22T12:55:32.239Z,6.63
2023-03-22T12:58:01.456Z,5.95
2023-03-22T13:00:33.232Z,6.18
2023-03-22T13:03:02.694Z,6.40
2023-03-22T13:05:33.441Z,6.32
2023-03-22T13:08:00.496Z,5.60
2023-03-22T13:11:10.698Z,5.97
2023-03-22T13:13:46.705Z,6.72
2023-03-22T13:16:41.977Z,6.65
2023-03-22T13:19:28.387Z,7.00
2023-03-22T13:22:27.739Z,6.30
2023-03-22T13:25:07.075Z,6.43
2023-03-22T13:27:36.592Z,6.88
2023-03-22T13:30:07.013Z,7.03
2023-03-22T13:32:34.698Z,7.35
2023-03-22T13:35:01.914Z,7.68
2023-03-22T13:37:33.265Z,6.10
2023-03-22T13:40:01.026Z,6.53
2023-03-22T13:42:35.646Z,6.82
2023-03-22T13:45:07.515Z,5.65
2023-03-22T13:47:36.784Z,7.60
2023-03-22T13:50:12.556Z,7.70
2023-03-22T13:52:42.147Z,6.25
2023-03-22T13:55:45.797Z,6.60
2023-03-22T13:58:34.432Z,7.10
2023-03-22T14:01:04.090Z,6.78
2023-03-22T14:03:33.106Z,8.02
2023-03-22T14:06:07.752Z,7.32
2023-03-22T14:08:36.151Z,8.43
2023-03-22T14:11:14.302Z,7.72
2023-03-22T14:13:46.705Z,7.20
2023-03-22T14:16:19.458Z,7.53
2023-03-22T14:18:49.510Z,7.65
2023-03-22T14:21:21.570Z,7.38
